Terminal Aerodrome Forecast
Issued by NWS Bismarck, ND

Home | Current Version | Previous Version | Graphics & Text | Print | Product List | Glossary On
Versions: 1 2 3 4 5 6 7 8 9 10 11 12 13 14 15 16 17 18 19
000
FTUS43 KBIS 022300
TAFISN
TAF
KISN 022338Z 0300/0324 29012KT P6SM SCT150
     FM030300 32022G30KT P6SM OVC015
     FM030900 32010G30KT P6SM SCT015 BKN040
     FM031800 31018G26KT P6SM SCT040=

USA.gov is the U.S. government's official web portal to all federal, state and local government web resources and services.